createdAt,value
2023-03-16T00:01:18.664Z,91.77
2023-03-16T00:03:46.462Z,91.88
2023-03-16T00:06:20.882Z,92.40
2023-03-16T00:08:48.821Z,92.52
2023-03-16T00:11:16.712Z,92.72
2023-03-16T00:13:44.474Z,91.92
2023-03-16T00:16:17.151Z,91.94
2023-03-16T00:18:46.473Z,92.20
2023-03-16T00:21:15.803Z,91.94
2023-03-16T00:23:43.856Z,92.12
2023-03-16T00:26:13.133Z,91.66
2023-03-16T00:28:42.759Z,91.40
2023-03-16T00:31:14.776Z,91.38
2023-03-16T00:33:43.848Z,91.79
2023-03-16T00:36:13.740Z,91.51
2023-03-16T00:38:45.470Z,91.66
2023-03-16T00:41:15.373Z,90.78
2023-03-16T00:43:45.494Z,90.95
2023-03-16T00:46:15.452Z,90.87
2023-03-16T00:48:46.574Z,90.96
2023-03-16T00:51:18.137Z,91.07
2023-03-16T00:53:47.669Z,91.35
2023-03-16T00:56:16.491Z,91.30
2023-03-16T00:58:44.586Z,91.46
2023-03-16T01:01:14.856Z,91.14
2023-03-16T01:03:43.187Z,91.47
2023-03-16T01:06:13.316Z,91.34
2023-03-16T01:08:44.706Z,91.71
2023-03-16T01:11:16.380Z,91.66
2023-03-16T01:13:47.269Z,91.86
2023-03-16T01:16:15.893Z,91.96
2023-03-16T01:18:43.869Z,92.75
2023-03-16T01:21:14.824Z,92.29
2023-03-16T01:23:44.418Z,93.00
2023-03-16T01:26:15.139Z,92.90
2023-03-16T01:28:44.424Z,92.67
2023-03-16T01:31:14.290Z,91.95
2023-03-16T01:33:43.324Z,91.86
2023-03-16T01:36:15.917Z,92.25
2023-03-16T01:39:06.774Z,92.07
2023-03-16T01:41:42.463Z,91.57
2023-03-16T01:44:14.210Z,91.42
2023-03-16T01:46:44.343Z,91.21
2023-03-16T01:49:15.719Z,91.14
2023-03-16T01:51:51.643Z,90.99
2023-03-16T01:54:26.481Z,91.50
2023-03-16T01:57:01.681Z,90.69
2023-03-16T01:59:36.947Z,90.98
2023-03-16T02:02:05.982Z,90.80
2023-03-16T02:04:44.226Z,91.07
2023-03-16T02:07:17.122Z,90.75
2023-03-16T02:10:07.626Z,91.06
2023-03-16T02:12:36.268Z,90.96
2023-03-16T02:15:05.706Z,91.06
2023-03-16T02:17:36.400Z,90.36
2023-03-16T02:20:23.916Z,90.51
2023-03-16T02:22:54.229Z,90.66
2023-03-16T02:25:25.891Z,91.27
2023-03-16T02:28:02.308Z,91.16
2023-03-16T02:30:33.344Z,90.52
2023-03-16T02:33:05.100Z,91.30
2023-03-16T02:38:13.014Z,91.86
2023-03-16T02:40:58.139Z,92.35
2023-03-16T02:43:29.894Z,91.88
2023-03-16T02:46:08.660Z,91.52
2023-03-16T02:48:43.820Z,91.86
2023-03-16T02:51:12.075Z,91.29
2023-03-16T02:53:40.042Z,91.43
2023-03-16T02:56:09.550Z,91.51
2023-03-16T02:58:38.631Z,91.23
2023-03-16T03:01:13.000Z,91.20
2023-03-16T03:03:41.353Z,90.82
2023-03-16T03:06:09.277Z,90.56
2023-03-16T03:08:38.476Z,90.51
2023-03-16T03:11:06.611Z,90.67
2023-03-16T03:13:34.465Z,91.57
2023-03-16T03:16:02.759Z,90.72
2023-03-16T03:18:32.127Z,91.10
2023-03-16T03:21:00.503Z,90.54
2023-03-16T03:23:28.365Z,90.49
2023-03-16T03:25:58.521Z,90.94
2023-03-16T03:28:27.175Z,90.66
2023-03-16T03:30:55.086Z,91.02
2023-03-16T03:33:23.455Z,90.90
2023-03-16T03:35:57.142Z,90.71
2023-03-16T03:38:26.547Z,90.83
2023-03-16T03:40:59.374Z,91.39
2023-03-16T03:43:29.641Z,90.83
2023-03-16T03:45:58.830Z,90.90
2023-03-16T03:48:27.267Z,90.77
2023-03-16T03:50:58.553Z,90.50
2023-03-16T03:53:47.404Z,90.65
2023-03-16T03:56:22.698Z,91.15
2023-03-16T03:58:50.864Z,90.60
2023-03-16T04:01:30.301Z,90.90
2023-03-16T04:03:58.968Z,90.92
2023-03-16T04:06:28.515Z,90.36
2023-03-16T04:08:56.503Z,90.40
2023-03-16T04:11:27.634Z,90.76
2023-03-16T04:13:55.552Z,91.12
2023-03-16T04:16:26.945Z,90.96
2023-03-16T04:18:56.185Z,90.61
2023-03-16T04:21:25.220Z,90.85
2023-03-16T04:23:54.738Z,90.64
2023-03-16T04:26:27.605Z,90.96
2023-03-16T04:28:55.750Z,90.93
2023-03-16T04:31:23.705Z,90.73
2023-03-16T04:33:54.630Z,90.94
2023-03-16T04:36:24.491Z,91.10
2023-03-16T04:38:54.272Z,90.85
2023-03-16T04:41:22.199Z,90.04
2023-03-16T04:43:58.756Z,90.98
2023-03-16T04:46:27.542Z,91.36
2023-03-16T04:48:58.506Z,90.61
2023-03-16T04:51:28.541Z,90.18
2023-03-16T04:54:07.491Z,90.20
2023-03-16T04:56:37.519Z,89.95
2023-03-16T04:59:10.880Z,90.48
2023-03-16T05:01:54.805Z,90.84
2023-03-16T05:04:24.574Z,91.34
2023-03-16T05:06:52.538Z,90.69
2023-03-16T05:09:26.006Z,90.71
2023-03-16T05:11:53.870Z,90.94
2023-03-16T05:14:21.816Z,90.24
2023-03-16T05:17:03.742Z,90.63
2023-03-16T05:19:31.834Z,90.83
2023-03-16T05:21:59.710Z,90.25
2023-03-16T05:24:29.404Z,89.87
2023-03-16T05:26:57.535Z,90.50
2023-03-16T05:29:26.788Z,91.03
2023-03-16T05:31:54.657Z,90.29
2023-03-16T05:34:24.958Z,91.08
2023-03-16T05:36:53.478Z,90.62
2023-03-16T05:39:23.429Z,90.16
2023-03-16T05:41:55.073Z,90.93
2023-03-16T05:44:40.434Z,90.17
2023-03-16T05:47:28.509Z,89.97
2023-03-16T05:49:58.517Z,90.29
2023-03-16T05:52:37.249Z,90.57
2023-03-16T05:55:13.149Z,90.12
2023-03-16T05:57:44.247Z,90.16
2023-03-16T06:00:16.545Z,90.28
2023-03-16T06:02:52.309Z,90.55
2023-03-16T06:05:24.392Z,91.15
2023-03-16T06:07:52.697Z,90.92
2023-03-16T06:10:21.430Z,91.08
2023-03-16T06:12:51.543Z,90.88
2023-03-16T06:15:25.207Z,90.95
2023-03-16T06:17:54.167Z,91.06
2023-03-16T06:20:22.696Z,92.29
2023-03-16T06:22:50.629Z,91.64
2023-03-16T06:25:18.797Z,91.81
2023-03-16T06:27:49.117Z,91.98
2023-03-16T06:30:20.015Z,91.96
2023-03-16T06:32:47.925Z,92.12
2023-03-16T06:35:16.274Z,91.87
2023-03-16T06:37:51.561Z,92.06
2023-03-16T06:40:39.667Z,92.33
2023-03-16T06:43:07.527Z,92.28
2023-03-16T06:45:37.277Z,92.91
2023-03-16T06:48:06.958Z,93.20
2023-03-16T06:50:34.817Z,92.91
2023-03-16T06:53:02.925Z,93.05
2023-03-16T06:55:33.172Z,93.36
2023-03-16T06:58:02.406Z,93.48
2023-03-16T07:00:30.808Z,93.60
2023-03-16T07:03:00.567Z,93.76
2023-03-16T07:05:29.666Z,93.51
2023-03-16T07:07:59.145Z,94.03
2023-03-16T07:10:27.654Z,93.37
2023-03-16T07:12:56.268Z,93.78
2023-03-16T07:15:26.535Z,93.80
2023-03-16T07:17:56.535Z,93.49
2023-03-16T07:20:29.015Z,93.99
2023-03-16T07:22:57.410Z,93.21
2023-03-16T07:25:25.730Z,93.43
2023-03-16T07:27:55.871Z,92.94
2023-03-16T07:30:30.234Z,92.72
2023-03-16T07:32:58.533Z,92.47
2023-03-16T07:35:29.559Z,92.99
2023-03-16T07:37:58.772Z,93.02
2023-03-16T07:40:29.056Z,92.05
2023-03-16T07:43:05.270Z,91.06
2023-03-16T07:45:40.290Z,91.92
2023-03-16T07:48:10.678Z,91.46
2023-03-16T07:50:50.692Z,91.68
2023-03-16T07:53:18.949Z,91.94
2023-03-16T07:55:51.751Z,91.66
2023-03-16T07:58:19.997Z,90.99
2023-03-16T08:00:50.116Z,91.15
2023-03-16T08:03:18.079Z,90.03
2023-03-16T08:05:47.459Z,89.92
2023-03-16T08:08:18.954Z,89.82
2023-03-16T08:10:48.802Z,88.64
2023-03-16T08:13:20.705Z,88.89
2023-03-16T08:15:50.374Z,88.15
2023-03-16T08:18:26.626Z,87.69
2023-03-16T08:20:55.182Z,87.36
2023-03-16T08:23:25.110Z,85.08
2023-03-16T08:25:54.753Z,85.33
2023-03-16T08:28:25.404Z,84.63
2023-03-16T08:30:55.558Z,84.21
2023-03-16T08:33:39.711Z,83.18
2023-03-16T08:36:09.789Z,82.73
2023-03-16T08:38:39.916Z,81.98
2023-03-16T08:41:12.479Z,81.62
2023-03-16T08:43:42.333Z,81.08
2023-03-16T08:46:11.576Z,80.75
2023-03-16T08:49:02.685Z,80.62
2023-03-16T08:51:31.121Z,80.27
2023-03-16T08:54:00.912Z,79.60
2023-03-16T08:56:30.516Z,79.31
2023-03-16T08:58:58.985Z,79.64
2023-03-16T09:01:27.573Z,79.50
2023-03-16T09:03:55.526Z,78.46
2023-03-16T09:06:23.505Z,78.12
2023-03-16T09:08:51.400Z,78.04
2023-03-16T09:11:22.248Z,77.49
2023-03-16T09:13:52.751Z,76.70
2023-03-16T09:16:25.647Z,75.78
2023-03-16T09:18:54.101Z,76.28
2023-03-16T09:21:21.945Z,74.61
2023-03-16T09:23:49.836Z,73.63
2023-03-16T09:26:17.763Z,74.92
2023-03-16T09:28:47.146Z,75.17
2023-03-16T09:31:18.881Z,73.60
2023-03-16T09:33:47.388Z,74.80
2023-03-16T09:36:16.285Z,74.30
2023-03-16T09:38:45.128Z,73.12
2023-03-16T09:41:32.111Z,73.01
2023-03-16T09:44:12.009Z,72.68
2023-03-16T09:46:44.563Z,71.34
2023-03-16T09:49:16.964Z,71.07
2023-03-16T09:51:49.794Z,71.96
2023-03-16T09:54:27.644Z,70.63
2023-03-16T09:56:58.186Z,69.62
2023-03-16T09:59:28.525Z,70.45
2023-03-16T10:02:27.405Z,70.79
2023-03-16T10:05:06.681Z,70.53
2023-03-16T10:07:43.906Z,69.47
2023-03-16T10:10:27.028Z,68.44
2023-03-16T10:13:00.194Z,68.65
2023-03-16T10:15:33.755Z,67.61
2023-03-16T10:18:08.026Z,68.22
2023-03-16T10:20:36.666Z,66.54
2023-03-16T10:23:18.172Z,66.72
2023-03-16T10:25:48.958Z,66.54
2023-03-16T10:28:19.461Z,66.00
2023-03-16T10:30:51.203Z,65.82
2023-03-16T10:33:25.905Z,64.69
2023-03-16T10:35:59.738Z,63.80
2023-03-16T10:38:33.037Z,62.85
2023-03-16T10:41:01.328Z,64.41
2023-03-16T10:43:34.187Z,63.61
2023-03-16T10:46:05.259Z,62.86
2023-03-16T10:48:34.870Z,61.45
2023-03-16T10:51:09.429Z,61.12
2023-03-16T10:53:41.647Z,60.79
2023-03-16T10:56:20.220Z,61.18
2023-03-16T10:58:48.256Z,61.46
2023-03-16T11:01:22.295Z,62.64
2023-03-16T11:03:53.181Z,62.54
2023-03-16T11:06:24.813Z,61.87
2023-03-16T11:08:54.953Z,60.46
2023-03-16T11:11:28.915Z,60.15
2023-03-16T11:13:59.675Z,59.81
2023-03-16T11:16:37.080Z,58.16
2023-03-16T11:19:14.927Z,58.84
2023-03-16T11:21:50.987Z,58.92
2023-03-16T11:24:27.052Z,58.81
2023-03-16T11:26:57.124Z,58.97
2023-03-16T11:29:29.856Z,57.84
2023-03-16T11:32:05.372Z,57.18
2023-03-16T11:34:34.324Z,57.25
2023-03-16T11:37:11.251Z,56.24
2023-03-16T11:39:45.265Z,56.44
2023-03-16T11:42:28.503Z,56.59
2023-03-16T11:45:06.392Z,54.79
2023-03-16T11:47:55.068Z,55.74
2023-03-16T11:50:29.020Z,52.79
2023-03-16T11:53:04.967Z,52.13
2023-03-16T11:55:44.399Z,54.81
2023-03-16T11:58:29.973Z,52.76
2023-03-16T12:01:08.845Z,52.84
2023-03-16T12:03:47.800Z,52.17
2023-03-16T12:06:27.479Z,54.23
2023-03-16T12:09:27.499Z,53.58
2023-03-16T12:12:02.176Z,52.76
2023-03-16T12:14:33.865Z,53.80
2023-03-16T12:17:05.761Z,55.59
2023-03-16T12:19:43.590Z,53.71
2023-03-16T12:22:18.910Z,53.16
2023-03-16T12:24:48.167Z,51.70
2023-03-16T12:27:19.100Z,50.55
2023-03-16T12:29:59.360Z,50.81
2023-03-16T12:32:38.128Z,52.30
2023-03-16T12:35:23.607Z,53.65
2023-03-16T12:38:02.911Z,52.95
2023-03-16T12:40:40.625Z,50.44
2023-03-16T12:43:22.700Z,52.20
2023-03-16T12:46:04.425Z,51.53
2023-03-16T12:48:35.354Z,50.57
2023-03-16T12:51:06.061Z,50.91
2023-03-16T12:53:43.836Z,50.77
2023-03-16T12:56:15.184Z,51.06
2023-03-16T12:58:48.610Z,51.98
2023-03-16T13:01:19.905Z,51.12
2023-03-16T13:03:50.680Z,50.05
2023-03-16T13:06:24.183Z,50.62
2023-03-16T13:08:59.721Z,51.35
2023-03-16T13:11:28.635Z,50.89
2023-03-16T13:14:10.936Z,49.61
2023-03-16T13:16:40.057Z,49.14
2023-03-16T13:19:28.372Z,48.70
2023-03-16T13:22:19.332Z,49.73
2023-03-16T13:24:53.029Z,49.56
2023-03-16T13:27:28.570Z,49.96
2023-03-16T13:29:58.352Z,49.78
2023-03-16T13:32:30.835Z,46.77
2023-03-16T13:35:00.641Z,47.28
2023-03-16T13:37:31.096Z,47.80
2023-03-16T13:40:04.566Z,47.52
2023-03-16T13:42:33.849Z,46.54
2023-03-16T13:45:14.278Z,47.64
2023-03-16T13:47:43.779Z,45.76
2023-03-16T13:50:13.982Z,47.33
2023-03-16T13:52:44.716Z,46.07
2023-03-16T13:55:17.652Z,45.94
2023-03-16T13:57:47.521Z,46.91
2023-03-16T14:00:20.137Z,45.70
2023-03-16T14:02:52.371Z,44.15
2023-03-16T14:05:24.450Z,44.71
2023-03-16T14:07:55.133Z,43.73
2023-03-16T14:10:25.253Z,47.17
2023-03-16T14:12:54.712Z,47.41
2023-03-16T14:15:26.677Z,46.46
2023-03-16T14:17:55.536Z,46.64
2023-03-16T14:20:26.070Z,44.61
2023-03-16T14:22:55.470Z,44.48
2023-03-16T14:25:28.127Z,44.58
2023-03-16T14:28:01.141Z,44.88
2023-03-16T14:30:30.942Z,44.32
2023-03-16T14:33:01.404Z,44.90
2023-03-16T14:35:32.298Z,46.30
2023-03-16T14:38:23.408Z,44.39
2023-03-16T14:40:57.472Z,44.37
2023-03-16T14:43:30.238Z,45.65
2023-03-16T14:45:58.545Z,43.85
2023-03-16T14:48:27.069Z,43.64
2023-03-16T14:50:57.516Z,43.46
2023-03-16T14:53:28.610Z,43.92
2023-03-16T14:55:56.852Z,43.94
2023-03-16T14:58:25.583Z,43.68
2023-03-16T15:00:54.703Z,43.62
2023-03-16T15:03:30.327Z,43.15
2023-03-16T15:05:58.173Z,42.12
2023-03-16T15:08:32.076Z,42.36
2023-03-16T15:11:02.726Z,43.13
2023-03-16T15:13:52.871Z,43.47
2023-03-16T15:16:23.051Z,42.17
2023-03-16T15:18:51.871Z,42.17
2023-03-16T15:21:25.260Z,43.52
2023-03-16T15:23:58.452Z,42.59
2023-03-16T15:26:28.168Z,43.25
2023-03-16T15:28:57.716Z,42.16
2023-03-16T15:31:25.949Z,41.86
2023-03-16T15:33:53.853Z,41.94
2023-03-16T15:36:24.339Z,42.28
2023-03-16T15:38:56.878Z,43.14
2023-03-16T15:41:28.309Z,42.40
2023-03-16T15:44:00.880Z,42.64
2023-03-16T15:46:29.601Z,42.15
2023-03-16T15:48:57.453Z,42.31
2023-03-16T15:51:28.944Z,42.97
2023-03-16T15:54:00.892Z,43.35
2023-03-16T15:56:33.491Z,42.95
2023-03-16T15:59:06.042Z,43.13
2023-03-16T16:01:45.130Z,43.22
2023-03-16T16:04:19.864Z,43.02
2023-03-16T16:06:48.589Z,43.35
2023-03-16T16:09:17.880Z,43.66
2023-03-16T16:11:47.174Z,43.32
2023-03-16T16:14:16.942Z,43.54
2023-03-16T16:16:46.854Z,43.43
2023-03-16T16:19:15.546Z,43.92
2023-03-16T16:21:43.987Z,44.42
2023-03-16T16:24:12.038Z,44.46
2023-03-16T16:26:52.040Z,44.75
2023-03-16T16:29:24.151Z,44.92
2023-03-16T16:31:52.580Z,45.46
2023-03-16T16:34:24.289Z,45.81
2023-03-16T16:36:52.830Z,45.71
2023-03-16T16:39:20.976Z,45.49
2023-03-16T16:41:51.966Z,45.52
2023-03-16T16:44:23.532Z,45.59
2023-03-16T16:46:53.517Z,46.45
2023-03-16T16:49:24.317Z,46.55
2023-03-16T16:51:52.742Z,46.82
2023-03-16T16:54:22.541Z,47.20
2023-03-16T16:56:54.735Z,47.43
2023-03-16T16:59:25.073Z,47.74
2023-03-16T17:01:54.892Z,47.95
2023-03-16T17:04:25.285Z,48.24
2023-03-16T17:06:55.589Z,48.97
2023-03-16T17:09:24.174Z,49.08
2023-03-16T17:11:56.062Z,49.01
2023-03-16T17:14:27.554Z,49.37
2023-03-16T17:16:55.791Z,49.54
2023-03-16T17:19:27.158Z,50.44
2023-03-16T17:21:57.186Z,50.88
2023-03-16T17:24:25.887Z,51.37
2023-03-16T17:26:58.769Z,51.75
2023-03-16T17:29:29.895Z,51.98
2023-03-16T17:31:57.981Z,52.55
2023-03-16T17:34:28.897Z,52.55
2023-03-16T17:36:57.245Z,53.04
2023-03-16T17:39:27.061Z,54.01
2023-03-16T17:41:58.919Z,53.66
2023-03-16T17:44:28.130Z,54.04
2023-03-16T17:46:56.418Z,53.97
2023-03-16T17:49:28.248Z,54.84
2023-03-16T17:51:56.695Z,55.32
2023-03-16T17:54:24.567Z,55.46
2023-03-16T17:56:53.705Z,55.66
2023-03-16T17:59:24.132Z,56.31
2023-03-16T18:01:52.223Z,56.19
2023-03-16T18:04:22.068Z,56.64
2023-03-16T18:06:51.204Z,56.83
2023-03-16T18:09:21.007Z,57.00
2023-03-16T18:11:52.091Z,57.03
2023-03-16T18:14:26.462Z,57.13
2023-03-16T18:16:55.507Z,57.60
2023-03-16T18:19:25.702Z,57.52
2023-03-16T18:21:54.082Z,57.92
2023-03-16T18:24:25.523Z,58.19
2023-03-16T18:26:53.484Z,57.90
2023-03-16T18:29:22.368Z,58.67
2023-03-16T18:31:55.104Z,58.33
2023-03-16T18:34:25.279Z,58.40
2023-03-16T18:36:54.929Z,58.87
2023-03-16T18:39:23.348Z,59.36
2023-03-16T18:41:51.300Z,58.47
2023-03-16T18:44:21.517Z,58.08
2023-03-16T18:46:52.209Z,58.76
2023-03-16T18:49:23.457Z,58.42
2023-03-16T18:51:53.337Z,58.41
2023-03-16T18:54:24.413Z,59.01
2023-03-16T18:56:53.837Z,58.61
2023-03-16T18:59:22.093Z,58.79
2023-03-16T19:01:51.854Z,59.54
2023-03-16T19:04:22.493Z,59.06
2023-03-16T19:06:53.442Z,58.35
2023-03-16T19:09:23.621Z,59.04
2023-03-16T19:11:52.100Z,59.07
2023-03-16T19:14:22.573Z,59.11
2023-03-16T19:16:52.644Z,59.58
2023-03-16T19:19:21.922Z,58.88
2023-03-16T19:21:51.294Z,59.76
2023-03-16T19:24:23.477Z,59.71
2023-03-16T19:26:52.016Z,59.39
2023-03-16T19:29:21.084Z,59.46
2023-03-16T19:31:49.702Z,60.25
2023-03-16T19:34:19.513Z,59.56
2023-03-16T19:36:47.420Z,59.45
2023-03-16T19:39:16.958Z,59.98
2023-03-16T19:41:46.919Z,59.65
2023-03-16T19:44:17.885Z,59.75
2023-03-16T19:46:46.539Z,59.65
2023-03-16T19:49:17.161Z,59.71
2023-03-16T19:51:47.197Z,59.38
2023-03-16T19:54:22.682Z,59.60
2023-03-16T19:56:52.463Z,59.22
2023-03-16T19:59:21.082Z,60.02
2023-03-16T20:01:49.188Z,60.16
2023-03-16T20:04:19.680Z,60.08
2023-03-16T20:06:50.006Z,59.95
2023-03-16T20:09:18.062Z,60.03
2023-03-16T20:11:46.658Z,60.17
2023-03-16T20:14:20.638Z,60.40
2023-03-16T20:16:48.996Z,60.55
2023-03-16T20:19:17.249Z,60.66
2023-03-16T20:21:45.424Z,60.64
2023-03-16T20:24:18.223Z,61.64
2023-03-16T20:26:47.546Z,61.08
2023-03-16T20:29:21.131Z,60.77
2023-03-16T20:31:49.290Z,60.90
2023-03-16T20:34:22.632Z,61.52
2023-03-16T20:36:50.442Z,61.65
2023-03-16T20:39:19.618Z,61.19
2023-03-16T20:41:47.745Z,62.31
2023-03-16T20:44:19.099Z,61.56
2023-03-16T20:46:47.776Z,61.64
2023-03-16T20:49:32.867Z,62.07
2023-03-16T20:52:00.946Z,62.17
2023-03-16T20:54:30.171Z,62.09
2023-03-16T20:56:58.078Z,62.86
2023-03-16T20:59:28.315Z,62.01
2023-03-16T21:01:56.411Z,62.87
2023-03-16T21:04:27.591Z,63.01
2023-03-16T21:06:57.630Z,64.34
2023-03-16T21:09:25.715Z,63.81
2023-03-16T21:11:54.992Z,62.80
2023-03-16T21:14:25.094Z,64.58
2023-03-16T21:16:54.852Z,64.31
2023-03-16T21:19:24.233Z,63.92
2023-03-16T21:21:52.353Z,66.29
2023-03-16T21:24:20.197Z,66.16
2023-03-16T21:26:48.454Z,66.34
2023-03-16T21:29:21.912Z,66.33
2023-03-16T21:31:50.080Z,64.57
2023-03-16T21:34:24.788Z,64.76
2023-03-16T21:36:53.213Z,65.29
2023-03-16T21:39:25.139Z,66.29
2023-03-16T21:41:53.570Z,65.75
2023-03-16T21:44:22.975Z,65.39
2023-03-16T21:46:51.402Z,65.19
2023-03-16T21:49:19.727Z,65.38
2023-03-16T21:51:47.795Z,65.71
2023-03-16T21:54:17.448Z,65.35
2023-03-16T21:56:45.381Z,64.97
2023-03-16T21:59:13.334Z,65.72
2023-03-16T22:01:54.678Z,65.08
2023-03-16T22:04:28.926Z,65.86
2023-03-16T22:06:56.817Z,65.51
2023-03-16T22:09:30.115Z,64.84
2023-03-16T22:11:58.305Z,65.19
2023-03-16T22:14:27.202Z,65.72
2023-03-16T22:16:57.403Z,66.16
2023-03-16T22:19:27.195Z,65.97
2023-03-16T22:21:57.094Z,66.49
2023-03-16T22:24:27.965Z,65.99
2023-03-16T22:26:56.680Z,65.98
2023-03-16T22:29:28.089Z,65.18
2023-03-16T22:32:01.171Z,66.28
2023-03-16T22:34:33.495Z,66.05
2023-03-16T22:37:02.416Z,66.17
2023-03-16T22:39:36.175Z,66.26
2023-03-16T22:42:06.916Z,65.94
2023-03-16T22:44:35.143Z,68.20
2023-03-16T22:47:04.550Z,68.50
2023-03-16T22:49:32.532Z,68.67
2023-03-16T22:52:01.911Z,68.50
2023-03-16T22:54:30.333Z,69.40
2023-03-16T22:56:58.402Z,69.55
2023-03-16T22:59:27.824Z,69.78
2023-03-16T23:01:56.513Z,70.09
2023-03-16T23:04:30.153Z,70.63
2023-03-16T23:06:58.465Z,71.39
2023-03-16T23:09:26.710Z,71.27
2023-03-16T23:11:55.891Z,71.61
2023-03-16T23:14:25.828Z,71.62
2023-03-16T23:16:54.118Z,71.74
2023-03-16T23:19:26.564Z,71.34
2023-03-16T23:21:56.861Z,72.00
2023-03-16T23:24:25.419Z,72.45
2023-03-16T23:26:54.979Z,71.67
2023-03-16T23:29:23.635Z,71.64
2023-03-16T23:31:53.705Z,72.04
2023-03-16T23:34:23.458Z,72.56
2023-03-16T23:36:53.117Z,71.88
2023-03-16T23:39:20.997Z,73.12
2023-03-16T23:41:50.753Z,73.81
2023-03-16T23:44:21.439Z,73.58
2023-03-16T23:46:49.871Z,73.90
2023-03-16T23:49:21.305Z,73.79
2023-03-16T23:51:49.577Z,74.44
2023-03-16T23:54:21.183Z,74.49
2023-03-16T23:56:49.370Z,74.39
2023-03-16T23:59:17.590Z,74.74
